Time;durP1;ratioP1;P1;durP2;ratioP2;P2;SDS_P1;SDS_P2;PMS_P1;PMS_P2;Temp;Humidity;BMP_temperature;BMP_pressure;BME280_temperature;BME280_humidity;BME280_pressure;Samples;Min_cycle;Max_cycle;Signal;HPM_P1;HPM_P2
2024/01/28 00:00:34;;;;;;;7.35;4.45;;;;;;;20.77;28.40;102624.03;4214121;28;20083;-70
2024/01/28 00:02:35;;;;;;;;;;;;;;;20.77;28.42;102617.81;4214666;28;20067;-69
2024/01/28 00:04:37;;;;;;;8.18;4.95;;;;;;;20.77;28.57;102612.47;4213919;28;20015;-69
2024/01/28 00:06:39;;;;;;;8.40;4.63;;;;;;;20.77;28.27;102607.13;4213929;28;20151;-69
2024/01/28 00:08:41;;;;;;;7.22;4.47;;;;;;;20.73;28.25;102603.75;4213801;28;20399;-69
2024/01/28 00:10:43;;;;;;;7.07;4.50;;;;;;;20.76;28.46;102600.91;4213871;28;20528;-68
2024/01/28 00:12:44;;;;;;;7.50;4.72;;;;;;;20.71;28.50;102590.41;4213471;28;20516;-68
2024/01/28 00:14:46;;;;;;;7.47;4.30;;;;;;;20.69;28.28;102578.94;4213849;28;20044;-69
2024/01/28 00:16:49;;;;;;;6.88;4.10;;;;;;;20.63;28.49;102559.66;4213816;28;20464;-69
2024/01/28 00:18:57;;;;;;;7.75;5.00;;;;;;;20.53;28.41;102545.88;4213628;28;20055;-68
2024/01/28 00:21:00;;;;;;;7.20;4.10;;;;;;;20.77;28.17;102567.88;4213767;28;20048;-70
2024/01/28 00:23:02;;;;;;;6.80;4.20;;;;;;;20.77;28.25;102564.34;4213817;28;20498;-69
2024/01/28 00:25:04;;;;;;;7.88;4.40;;;;;;;20.71;28.42;102544.94;4214066;28;20052;-70
2024/01/28 00:27:05;;;;;;;;;;;;;;;20.81;28.25;102566.78;4213793;28;20414;-69
2024/01/28 00:29:08;;;;;;;8.37;4.83;;;;;;;20.68;28.05;102542.44;4213754;28;19920;-69
2024/01/28 00:31:10;;;;;;;6.75;4.15;;;;;;;20.81;28.30;102561.44;4213564;28;20282;-69
2024/01/28 00:33:11;;;;;;;7.15;4.22;;;;;;;20.81;28.19;102555.25;4213693;28;20075;-69
2024/01/28 00:35:13;;;;;;;7.80;4.65;;;;;;;20.80;28.10;102554.34;4213738;28;20487;-69
2024/01/28 00:37:15;;;;;;;7.85;4.38;;;;;;;20.80;28.19;102559.69;4213732;28;20554;-70
2024/01/28 00:39:17;;;;;;;6.28;3.83;;;;;;;20.79;28.10;102560.66;4213468;28;20115;-69
2024/01/28 00:41:28;;;;;;;8.15;4.50;;;;;;;20.77;28.12;102554.53;4213300;28;20051;-69
2024/01/28 00:43:30;;;;;;;7.25;4.15;;;;;;;20.65;28.37;102545.25;4213561;28;20059;-69
2024/01/28 00:45:32;;;;;;;7.25;4.00;;;;;;;20.66;28.13;102548.81;4213354;28;20047;-70
2024/01/28 00:47:33;;;;;;;6.57;3.97;;;;;;;20.67;28.08;102548.72;4213206;28;20055;-69
2024/01/28 00:49:35;;;;;;;6.57;3.80;;;;;;;20.74;28.14;102560.00;4213525;28;20068;-70
2024/01/28 00:51:37;;;;;;;;;;;;;;;20.77;28.10;102562.53;4213822;28;20054;-67
2024/01/28 00:53:39;;;;;;;7.40;3.90;;;;;;;20.75;28.30;102556.41;4213285;28;19920;-67
2024/01/28 00:55:40;;;;;;;6.82;3.88;;;;;;;20.76;28.35;102555.47;4211628;28;20055;-67
2024/01/28 00:57:42;;;;;;;5.63;3.70;;;;;;;20.62;28.06;102528.50;4213179;28;20044;-67
2024/01/28 00:59:44;;;;;;;6.60;3.55;;;;;;;20.77;28.29;102538.47;4215239;28;20124;-69
2024/01/28 01:01:45;;;;;;;6.35;3.88;;;;;;;20.77;28.25;102540.28;4216771;28;20142;-70
2024/01/28 01:03:47;;;;;;;6.03;3.47;;;;;;;20.76;28.29;102536.75;4216766;28;20044;-69
2024/01/28 01:05:49;;;;;;;7.32;3.88;;;;;;;20.74;28.36;102536.81;4216679;28;20044;-70
2024/01/28 01:07:51;;;;;;;6.28;3.60;;;;;;;20.73;28.23;102535.09;4215526;28;20071;-68
2024/01/28 01:09:52;;;;;;;6.97;4.20;;;;;;;20.72;28.24;102548.53;4216535;28;20048;-70
2024/01/28 01:11:55;;;;;;;6.32;3.55;;;;;;;20.70;28.35;102545.88;4216712;28;20050;-70
2024/01/28 01:13:57;;;;;;;6.05;3.50;;;;;;;20.60;28.21;102523.25;4216778;28;20482;-70
2024/01/28 01:15:59;;;;;;;6.80;3.92;;;;;;;20.65;28.25;102531.03;4216740;28;20081;-70
2024/01/28 01:18:01;;;;;;;6.85;3.30;;;;;;;20.64;28.21;102526.63;4216546;28;20048;-69
2024/01/28 01:20:03;;;;;;;;;;;;;;;20.74;28.27;102536.81;4216810;28;20040;-67
2024/01/28 01:22:04;;;;;;;6.28;3.58;;;;;;;20.70;28.10;102537.88;4216349;28;20318;-70
2024/01/28 01:24:06;;;;;;;7.05;3.88;;;;;;;20.75;28.02;102535.00;4216484;28;20098;-70
2024/01/28 01:26:09;;;;;;;6.38;3.72;;;;;;;20.71;28.13;102528.06;4216511;28;20050;-70
2024/01/28 01:28:11;;;;;;;6.88;4.03;;;;;;;20.72;28.23;102535.19;4216260;28;20055;-70
2024/01/28 01:30:13;;;;;;;6.57;3.58;;;;;;;20.70;28.12;102527.16;4216490;28;20048;-70
2024/01/28 01:32:15;;;;;;;8.07;3.67;;;;;;;20.70;28.35;102529.00;4216277;28;20430;-70
2024/01/28 01:34:17;;;;;;;5.97;3.60;;;;;;;20.63;28.08;102517.72;4216301;28;20067;-70
2024/01/28 01:36:19;;;;;;;6.68;3.63;;;;;;;20.63;28.25;102509.69;4216332;28;20105;-69
2024/01/28 01:38:22;;;;;;;6.05;3.33;;;;;;;20.69;28.15;102514.78;4216307;28;20429;-69
2024/01/28 01:40:24;;;;;;;6.43;4.00;;;;;;;20.69;28.07;102498.72;4215807;28;20072;-69
2024/01/28 01:42:26;;;;;;;7.10;4.15;;;;;;;20.71;28.04;102496.81;4215838;28;20048;-69
2024/01/28 01:44:28;;;;;;;7.35;3.95;;;;;;;20.61;27.99;102481.31;4216164;28;20046;-68
2024/01/28 01:46:31;;;;;;;5.40;3.55;;;;;;;20.64;28.08;102476.69;4215960;28;20560;-69
2024/01/28 01:48:32;;;;;;;7.35;3.90;;;;;;;20.73;28.09;102494.97;4215999;28;20514;-68
2024/01/28 01:50:34;;;;;;;5.90;3.47;;;;;;;20.60;28.06;102461.75;4216247;28;20472;-68
2024/01/28 01:52:41;;;;;;;5.55;3.13;;;;;;;20.70;28.24;102492.41;4216205;28;20109;-69
2024/01/28 01:54:44;;;;;;;5.80;3.38;;;;;;;20.47;27.95;102453.47;4215614;28;20044;-69
2024/01/28 01:56:46;;;;;;;6.18;3.42;;;;;;;20.63;28.18;102474.94;4216069;28;20044;-70
2024/01/28 01:58:48;;;;;;;;;;;;;;;20.71;28.11;102487.94;4216282;28;20052;-69
2024/01/28 02:00:49;;;;;;;6.03;3.23;;;;;;;20.68;28.25;102485.41;4214790;28;19920;-70
2024/01/28 02:02:51;;;;;;;6.15;3.83;;;;;;;20.67;28.19;102481.00;4215891;28;20712;-69
2024/01/28 02:04:53;;;;;;;5.63;3.30;;;;;;;20.56;28.23;102462.84;4214820;28;20064;-69
2024/01/28 02:06:55;;;;;;;6.05;3.72;;;;;;;20.66;28.30;102490.00;4215903;28;20044;-68
2024/01/28 02:08:56;;;;;;;6.53;3.60;;;;;;;20.61;28.21;102476.84;4215045;28;20056;-68
2024/01/28 02:11:02;;;;;;;;;;;;;;;20.67;28.19;102486.34;4216230;28;20050;-68
2024/01/28 02:13:03;;;;;;;6.38;3.63;;;;;;;20.65;28.27;102474.91;4215593;28;20290;-68
2024/01/28 02:15:11;;;;;;;6.10;3.33;;;;;;;20.69;28.15;102484.47;4215852;28;20051;-69
2024/01/28 02:17:13;;;;;;;6.40;3.67;;;;;;;20.69;28.18;102477.34;4215827;28;20139;-69
2024/01/28 02:19:16;;;;;;;6.57;3.28;;;;;;;20.62;28.07;102464.34;4215565;28;20048;-70
2024/01/28 02:21:18;;;;;;;7.80;3.92;;;;;;;20.67;28.25;102478.34;4215412;28;20056;-69
2024/01/28 02:23:23;;;;;;;7.30;3.90;;;;;;;20.66;28.05;102480.16;4215631;28;20055;-68
2024/01/28 02:25:24;;;;;;;6.93;4.07;;;;;;;20.65;28.05;102482.91;4215347;28;20044;-69
2024/01/28 02:27:26;;;;;;;7.07;3.88;;;;;;;20.54;28.06;102462.91;4215234;28;20048;-67
2024/01/28 02:29:28;;;;;;;5.85;3.60;;;;;;;20.54;28.11;102465.59;4215383;28;20044;-68
2024/01/28 02:31:29;;;;;;;6.43;3.83;;;;;;;20.54;28.20;102456.72;4215567;28;20040;-68
2024/01/28 02:33:31;;;;;;;6.70;3.85;;;;;;;20.60;28.16;102464.44;4215251;28;20048;-67
2024/01/28 02:35:32;;;;;;;5.68;3.47;;;;;;;20.53;28.21;102450.50;4215534;28;20076;-69
2024/01/28 02:37:34;;;;;;;6.03;3.72;;;;;;;20.55;28.01;102448.63;4213806;28;20545;-67
2024/01/28 02:39:37;;;;;;;6.47;3.33;;;;;;;20.55;28.04;102445.09;4215412;28;20131;-68
2024/01/28 02:41:39;;;;;;;6.07;3.40;;;;;;;20.65;28.11;102459.72;4215275;28;20491;-67
2024/01/28 02:43:40;;;;;;;5.90;3.38;;;;;;;20.62;28.26;102442.97;4215421;28;20075;-67
2024/01/28 02:45:42;;;;;;;5.90;3.47;;;;;;;20.61;28.15;102439.44;4213849;28;20067;-68
2024/01/28 02:47:44;;;;;;;5.97;3.50;;;;;;;20.59;28.08;102439.47;4215198;28;20056;-68
2024/01/28 02:49:46;;;;;;;;;;;;;;;20.63;28.26;102450.03;4215526;28;20040;-67
2024/01/28 02:51:47;;;;;;;6.47;3.70;;;;;;;20.37;28.16;102409.47;4230760;28;19920;-68
2024/01/28 02:53:49;;;;;;;7.18;4.00;;;;;;;20.60;28.12;102443.03;4215001;28;20048;-67
2024/01/28 02:55:51;;;;;;;5.72;3.30;;;;;;;20.59;28.08;102434.13;4215166;28;20047;-67
2024/01/28 02:57:52;;;;;;;6.13;3.53;;;;;;;20.58;28.06;102439.56;4214974;28;20058;-68
2024/01/28 02:59:54;;;;;;;5.82;3.40;;;;;;;20.56;28.15;102436.09;4214948;28;20048;-68
2024/01/28 03:01:56;;;;;;;7.38;3.60;;;;;;;20.56;28.33;102428.09;4214935;28;20044;-68
2024/01/28 03:03:58;;;;;;;7.03;3.90;;;;;;;20.62;28.02;102437.59;4214976;28;20044;-68
2024/01/28 03:06:00;;;;;;;;;;;;;;;20.63;28.17;102442.03;4214983;28;20101;-69
2024/01/28 03:08:02;;;;;;;6.27;3.33;;;;;;;20.58;28.30;102419.06;4214882;28;19924;-68
2024/01/28 03:10:04;;;;;;;6.60;3.38;;;;;;;20.58;28.19;102408.38;4214673;28;20455;-68
2024/01/28 03:12:06;;;;;;;5.85;3.42;;;;;;;20.40;28.19;102379.91;4214878;28;20055;-69
2024/01/28 03:14:08;;;;;;;5.90;3.50;;;;;;;20.61;28.22;102410.03;4215087;28;20101;-67
2024/01/28 03:16:10;;;;;;;5.90;3.75;;;;;;;20.46;28.10;102379.56;4213610;28;20490;-68
2024/01/28 03:18:12;;;;;;;5.68;3.20;;;;;;;20.59;28.37;102402.06;4214541;28;20090;-68
2024/01/28 03:20:16;;;;;;;;;;;;;;;20.59;28.26;102406.56;4215086;28;20076;-69
2024/01/28 03:22:17;;;;;;;6.43;3.42;;;;;;;20.56;28.05;102399.56;4213660;28;19996;-68
2024/01/28 03:24:19;;;;;;;5.70;3.40;;;;;;;20.56;28.09;102402.25;4214466;28;20048;-68
2024/01/28 03:26:21;;;;;;;6.63;3.70;;;;;;;20.49;28.31;102386.59;4214648;28;20054;-68
2024/01/28 03:28:22;;;;;;;;;;;;;;;20.56;28.26;102398.69;4214982;28;20117;-68
2024/01/28 03:30:24;;;;;;;6.07;3.88;;;;;;;20.56;27.91;102393.34;4213356;28;19953;-69
2024/01/28 03:32:26;;;;;;;6.38;3.83;;;;;;;20.56;28.28;102383.53;4214645;28;20040;-69
2024/01/28 03:34:28;;;;;;;7.22;3.63;;;;;;;20.46;28.39;102363.53;4214425;28;20044;-68
2024/01/28 03:36:29;;;;;;;;;;;;;;;20.59;28.31;102382.50;4214625;28;20123;-68
2024/01/28 03:38:31;;;;;;;6.88;3.80;;;;;;;20.55;28.20;102383.63;4214294;28;19959;-68
2024/01/28 03:40:33;;;;;;;6.60;3.90;;;;;;;20.56;27.98;102391.53;4213044;28;20075;-68
2024/01/28 03:42:34;;;;;;;5.85;3.55;;;;;;;20.54;28.18;102382.72;4214324;28;20036;-68
2024/01/28 03:44:36;;;;;;;6.78;3.60;;;;;;;20.55;28.20;102388.97;4214084;28;20050;-68
2024/01/28 03:46:38;;;;;;;6.05;3.20;;;;;;;20.43;28.14;102367.25;4214138;28;20044;-69
2024/01/28 03:48:40;;;;;;;6.47;3.42;;;;;;;20.52;28.10;102381.97;4214129;28;20469;-68
2024/01/28 03:50:42;;;;;;;;;;;;;;;20.52;28.31;102381.09;4214306;28;20044;-68
2024/01/28 03:52:43;;;;;;;5.35;3.10;;;;;;;20.51;28.23;102376.69;4213983;28;19920;-68
2024/01/28 03:54:45;;;;;;;5.55;3.30;;;;;;;20.54;28.14;102379.22;4214051;28;20131;-68
2024/01/28 03:56:47;;;;;;;6.63;3.50;;;;;;;20.49;28.30;102371.41;4214373;28;20464;-68
2024/01/28 03:58:48;;;;;;;6.65;3.53;;;;;;;20.49;28.14;102368.75;4214120;28;20048;-68
2024/01/28 04:00:50;;;;;;;6.22;3.28;;;;;;;20.39;28.07;102351.44;4213907;28;20056;-68
2024/01/28 04:02:52;;;;;;;6.70;3.60;;;;;;;20.57;28.25;102385.25;4212980;28;20048;-68
2024/01/28 04:04:53;;;;;;;6.68;3.33;;;;;;;20.51;28.19;102372.22;4212581;28;20500;-69
2024/01/28 04:06:55;;;;;;;5.63;3.30;;;;;;;20.56;28.48;102371.94;4214304;28;20548;-68
2024/01/28 04:08:57;;;;;;;6.20;3.55;;;;;;;20.51;28.32;102368.66;4214090;28;20044;-69
2024/01/28 04:10:58;;;;;;;5.95;3.45;;;;;;;20.47;28.23;102353.72;4214061;28;20044;-68
2024/01/28 04:13:00;;;;;;;5.75;3.47;;;;;;;20.47;28.12;102362.59;4213956;28;20113;-68
2024/01/28 04:15:02;;;;;;;5.95;3.60;;;;;;;20.46;28.29;102354.69;4213896;28;20078;-68
2024/01/28 04:17:04;;;;;;;6.20;3.58;;;;;;;20.41;28.16;102353.13;4213983;28;20044;-68
2024/01/28 04:19:06;;;;;;;6.47;3.40;;;;;;;20.42;28.19;102353.97;4213623;28;20044;-68
2024/01/28 04:21:09;;;;;;;;;;;;;;;20.50;28.29;102364.25;4214280;28;20099;-68
2024/01/28 04:23:10;;;;;;;6.57;3.63;;;;;;;20.49;28.07;102368.75;4213963;28;19920;-68
2024/01/28 04:25:13;;;;;;;7.18;3.47;;;;;;;20.52;28.03;102362.38;4213883;28;20059;-69
2024/01/28 04:27:15;;;;;;;6.20;3.47;;;;;;;20.50;27.99;102367.81;4213886;28;20048;-68
2024/01/28 04:29:16;;;;;;;6.82;3.38;;;;;;;20.50;27.97;102356.22;4212656;28;20129;-68
2024/01/28 04:31:19;;;;;;;5.03;3.10;;;;;;;20.43;28.08;102355.69;4213951;28;20072;-69
2024/01/28 04:33:21;;;;;;;6.25;3.22;;;;;;;20.31;28.05;102330.47;4213279;28;20436;-69
2024/01/28 04:35:23;;;;;;;;;;;;;;;20.50;28.25;102359.78;4214232;28;20059;-67
2024/01/28 04:37:26;;;;;;;6.17;3.23;;;;;;;20.41;28.09;102350.44;4213738;28;20011;-68
2024/01/28 04:39:27;;;;;;;6.00;3.20;;;;;;;20.48;28.00;102356.31;4213684;28;20423;-70
2024/01/28 04:41:29;;;;;;;5.90;3.17;;;;;;;20.47;28.25;102351.06;4213827;28;20460;-67
2024/01/28 04:43:31;;;;;;;6.30;3.38;;;;;;;20.45;28.24;102355.63;4213522;28;20044;-68
2024/01/28 04:45:33;;;;;;;5.78;3.38;;;;;;;20.46;28.13;102360.88;4212362;28;20470;-70
2024/01/28 04:47:36;;;;;;;5.15;2.88;;;;;;;20.48;28.35;102358.13;4213131;28;20079;-70
2024/01/28 04:49:38;;;;;;;5.65;2.97;;;;;;;20.48;28.06;102358.13;4212425;28;20064;-71
2024/01/28 04:51:41;;;;;;;5.50;3.08;;;;;;;20.48;28.01;102355.47;4213616;28;20059;-69
2024/01/28 04:53:43;;;;;;;5.40;2.88;;;;;;;20.50;28.32;102356.22;4212371;28;20076;-69
2024/01/28 04:55:45;;;;;;;6.85;3.10;;;;;;;20.50;28.29;102357.13;4213674;28;20474;-67
2024/01/28 04:57:46;;;;;;;6.30;3.30;;;;;;;20.46;28.30;102349.31;4213679;28;20044;-67
2024/01/28 04:59:48;;;;;;;4.55;2.63;;;;;;;20.42;28.12;102345.94;4213520;28;20056;-67
2024/01/28 05:01:50;;;;;;;5.97;3.00;;;;;;;20.46;28.31;102350.19;4213518;28;20067;-67
2024/01/28 05:03:52;;;;;;;5.35;2.65;;;;;;;20.46;28.23;102349.31;4213158;28;20131;-70
2024/01/28 05:05:54;;;;;;;;;;;;;;;20.43;28.05;102345.88;4212840;28;20054;-67
2024/01/28 05:07:55;;;;;;;4.57;2.60;;;;;;;20.38;28.22;102341.72;4213740;28;20420;-69
2024/01/28 05:09:57;;;;;;;5.22;2.72;;;;;;;20.41;28.31;102338.88;4213264;28;20399;-69
2024/01/28 05:11:59;;;;;;;5.30;2.40;;;;;;;20.29;28.27;102315.47;4213636;28;20487;-68
2024/01/28 05:14:01;;;;;;;5.10;2.60;;;;;;;20.11;28.14;102294.09;4213431;28;20054;-69
2024/01/28 05:16:03;;;;;;;5.85;2.78;;;;;;;20.41;27.95;102342.44;4213812;28;20068;-69
2024/01/28 05:18:05;;;;;;;5.55;2.80;;;;;;;20.36;28.24;102331.09;4213032;28;20048;-70
2024/01/28 05:20:11;;;;;;;;;;;;;;;20.47;28.13;102353.72;4195746;28;20049;-68
2024/01/28 05:22:14;;;;;;;4.40;2.50;;;;;;;20.43;28.35;102345.00;4213447;28;20230;-67
2024/01/28 05:24:18;;;;;;;4.55;2.28;;;;;;;20.39;27.97;102338.06;4213384;28;20048;-70
2024/01/28 05:26:19;;;;;;;6.43;2.75;;;;;;;20.42;27.67;102344.13;4213433;28;20052;-68
2024/01/28 05:28:21;;;;;;;5.07;2.63;;;;;;;20.21;28.36;102308.69;4213341;28;20048;-68
2024/01/28 05:30:23;;;;;;;4.43;2.50;;;;;;;20.19;28.17;102310.56;4213298;28;20072;-67
2024/01/28 05:32:29;;;;;;;4.00;2.15;;;;;;;20.43;28.31;102358.38;4212840;28;20533;-69
2024/01/28 05:34:31;;;;;;;4.75;2.55;;;;;;;20.29;28.13;102340.34;4213482;28;20061;-67
2024/01/28 05:36:33;;;;;;;3.80;2.10;;;;;;;20.35;28.12;102349.88;4213373;28;20482;-70
2024/01/28 05:38:34;;;;;;;;;;;;;;;20.40;28.19;102353.16;4213661;28;20044;-68
2024/01/28 05:40:36;;;;;;;5.37;2.87;;;;;;;20.40;28.22;102356.72;4213226;28;19920;-68
2024/01/28 05:42:38;;;;;;;4.88;2.40;;;;;;;20.41;28.24;102353.13;4213258;28;20051;-69
2024/01/28 05:44:39;;;;;;;4.65;2.22;;;;;;;20.40;28.40;102346.03;4214323;28;20044;-70
2024/01/28 05:46:41;;;;;;;5.00;2.60;;;;;;;20.42;28.18;102346.81;4215905;28;20048;-70
2024/01/28 05:48:43;;;;;;;5.35;2.55;;;;;;;20.44;28.12;102344.06;4214891;28;20119;-67
2024/01/28 05:50:44;;;;;;;;;;;;;;;20.46;28.30;102349.31;4216705;28;20097;-68
2024/01/28 05:52:46;;;;;;;5.20;2.13;;;;;;;20.42;28.18;102348.63;4216399;28;19981;-68
2024/01/28 05:54:48;;;;;;;4.65;2.35;;;;;;;20.39;28.09;102344.31;4215904;28;20294;-70
2024/01/28 05:56:50;;;;;;;5.18;2.70;;;;;;;20.36;28.13;102338.25;4216185;28;20499;-67
2024/01/28 05:58:52;;;;;;;4.07;2.40;;;;;;;20.29;28.44;102334.16;4216136;28;20044;-68
2024/01/28 06:00:54;;;;;;;5.15;2.40;;;;;;;20.40;27.91;102348.72;4215636;28;20044;-68
2024/01/28 06:02:55;;;;;;;5.03;2.25;;;;;;;20.32;28.30;102332.19;4214916;28;20084;-68
2024/01/28 06:04:57;;;;;;;5.07;2.28;;;;;;;20.39;28.29;102341.63;4214846;28;20086;-68
2024/01/28 06:07:00;;;;;;;4.85;2.00;;;;;;;20.38;28.46;102331.03;4215994;28;20529;-67
2024/01/28 06:09:02;;;;;;;4.25;2.13;;;;;;;20.13;28.50;102289.53;4215789;28;20048;-67
2024/01/28 06:11:04;;;;;;;;;;;;;;;20.41;28.39;102339.75;4216416;28;20062;-68
2024/01/28 06:13:05;;;;;;;4.97;2.43;;;;;;;20.37;28.21;102329.28;4215686;28;19946;-68
2024/01/28 06:15:08;;;;;;;4.75;2.15;;;;;;;20.41;28.08;102339.75;4215300;28;20050;-70
2024/01/28 06:17:10;;;;;;;4.20;2.17;;;;;;;20.31;28.38;102306.41;4215746;28;20498;-70
2024/01/28 06:19:12;;;;;;;4.88;2.33;;;;;;;20.42;28.12;102330.75;4215757;28;20048;-67
2024/01/28 06:21:14;;;;;;;5.25;2.28;;;;;;;20.28;28.16;102301.25;4214376;28;20530;-69
2024/01/28 06:23:15;;;;;;;5.07;2.20;;;;;;;20.41;28.44;102328.19;4215491;28;20131;-67
2024/01/28 06:25:17;;;;;;;4.25;2.20;;;;;;;20.35;28.14;102318.69;4215733;28;20048;-68
2024/01/28 06:27:19;;;;;;;3.85;2.10;;;;;;;20.36;27.99;102324.88;4215517;28;20078;-67
2024/01/28 06:29:21;;;;;;;5.05;2.33;;;;;;;20.37;28.14;102327.47;4215130;28;20055;-70
2024/01/28 06:31:22;;;;;;;4.90;2.00;;;;;;;20.35;28.16;102329.38;4215391;28;20063;-70
2024/01/28 06:33:24;;;;;;;5.50;2.35;;;;;;;20.36;28.10;102323.06;4214442;28;20056;-71
2024/01/28 06:35:26;;;;;;;;;;;;;;;20.38;28.59;102313.19;4215890;28;20176;-68
2024/01/28 06:37:27;;;;;;;4.68;2.30;;;;;;;20.35;27.87;102300.00;4215611;28;19920;-70
2024/01/28 06:39:29;;;;;;;4.95;2.20;;;;;;;20.40;28.14;102297.94;4215259;28;20040;-70
2024/01/28 06:41:30;;;;;;;4.65;2.10;;;;;;;20.30;28.22;102271.78;4215253;28;20528;-70
2024/01/28 06:43:32;;;;;;;4.93;1.95;;;;;;;20.43;28.43;102288.88;4214993;28;20047;-68
2024/01/28 06:45:34;;;;;;;5.05;2.20;;;;;;;20.43;28.25;102291.56;4215237;28;20047;-68
2024/01/28 06:47:35;;;;;;;4.20;2.05;;;;;;;20.41;28.10;102285.44;4214991;28;20112;-69
2024/01/28 06:49:37;;;;;;;3.92;2.15;;;;;;;20.33;28.17;102274.25;4214071;28;20048;-69
2024/01/28 06:51:42;;;;;;;4.10;2.17;;;;;;;20.25;28.24;102261.31;4215272;28;20118;-69
2024/01/28 06:53:44;;;;;;;4.25;2.00;;;;;;;20.37;28.43;102281.19;4215370;28;20052;-69
2024/01/28 06:55:46;;;;;;;4.57;2.08;;;;;;;20.32;28.22;102270.75;4214924;28;20189;-68
2024/01/28 06:57:47;;;;;;;3.95;1.98;;;;;;;20.34;28.34;102276.88;4213985;28;20044;-68
2024/01/28 06:59:49;;;;;;;4.40;1.98;;;;;;;20.32;28.47;102272.56;4214727;28;20074;-68
2024/01/28 07:01:51;;;;;;;4.10;2.10;;;;;;;20.38;28.24;102274.91;4215087;28;20075;-68
2024/01/28 07:03:53;;;;;;;4.57;2.22;;;;;;;20.35;28.43;102267.94;4215441;28;20040;-68
2024/01/28 07:05:54;;;;;;;4.07;2.25;;;;;;;20.31;28.26;102258.31;4214973;28;20460;-68
2024/01/28 07:07:56;;;;;;;4.40;2.17;;;;;;;20.40;28.08;102265.88;4214957;28;20050;-68
2024/01/28 07:09:58;;;;;;;5.53;2.17;;;;;;;20.39;28.10;102269.47;4215016;28;20056;-68
2024/01/28 07:12:00;;;;;;;;;;;;;;;20.39;28.14;102271.28;4214271;28;20452;-68
2024/01/28 07:14:01;;;;;;;4.30;2.20;;;;;;;20.33;28.16;102264.47;4213437;28;19927;-68
2024/01/28 07:16:03;;;;;;;3.78;2.00;;;;;;;20.28;28.17;102263.84;4214875;28;20502;-68
2024/01/28 07:18:05;;;;;;;;;;;;;;;20.36;28.27;102271.44;4213913;28;20075;-67
2024/01/28 07:20:08;;;;;;;5.78;2.20;;;;;;;20.32;28.25;102273.41;4214766;28;20006;-68
2024/01/28 07:22:11;;;;;;;4.10;1.90;;;;;;;20.27;28.39;102267.47;4214399;28;20048;-68
2024/01/28 07:24:13;;;;;;;4.80;2.10;;;;;;;20.24;28.26;102259.59;4214610;28;20044;-70
2024/01/28 07:26:15;;;;;;;4.60;2.13;;;;;;;20.33;28.32;102274.25;4214827;28;20430;-68
2024/01/28 07:28:16;;;;;;;3.60;1.90;;;;;;;20.35;28.25;102289.31;4214263;28;20132;-70
2024/01/28 07:30:18;;;;;;;5.60;2.10;;;;;;;20.37;28.41;102291.88;4214667;28;20468;-67
2024/01/28 07:32:20;;;;;;;4.72;2.05;;;;;;;20.36;28.36;102284.81;4214605;28;20086;-67
2024/01/28 07:34:23;;;;;;;4.45;2.05;;;;;;;20.32;28.30;102283.25;4214603;28;20093;-67
2024/01/28 07:36:25;;;;;;;4.10;2.00;;;;;;;20.36;28.50;102285.66;4214593;28;20059;-68
2024/01/28 07:38:27;;;;;;;4.22;2.00;;;;;;;20.36;28.33;102284.81;4214572;28;20131;-70
2024/01/28 07:40:28;;;;;;;;;;;;;;;20.36;28.41;102284.81;4214961;28;20475;-68
2024/01/28 07:42:30;;;;;;;4.63;2.00;;;;;;;20.31;28.19;102278.84;4213965;28;20045;-67
2024/01/28 07:44:32;;;;;;;;;;;;;;;20.33;28.37;102290.28;4214558;28;20289;-68
2024/01/28 07:46:34;;;;;;;4.03;1.90;;;;;;;20.22;28.33;102274.81;4214166;28;20390;-70
2024/01/28 07:48:36;;;;;;;4.80;2.47;;;;;;;20.30;28.50;102296.66;4214709;28;20395;-68
2024/01/28 07:50:37;;;;;;;;;;;;;;;20.31;28.30;102295.72;4214759;28;20048;-68
2024/01/28 07:52:40;;;;;;;4.50;2.10;;;;;;;20.30;28.36;102285.13;4214306;28;19920;-70
2024/01/28 07:54:42;;;;;;;4.35;1.98;;;;;;;20.19;28.51;102272.31;4214445;28;20092;-68
2024/01/28 07:56:44;;;;;;;4.72;2.20;;;;;;;20.34;28.46;102294.69;4213939;28;20048;-70
2024/01/28 07:58:45;;;;;;;3.80;1.95;;;;;;;20.27;28.30;102281.66;4214189;28;20068;-68
2024/01/28 08:00:47;;;;;;;4.55;2.28;;;;;;;20.35;28.21;102291.09;4213911;28;20119;-70
2024/01/28 08:02:49;;;;;;;5.78;2.20;;;;;;;20.33;28.23;102287.63;4213953;28;20054;-68
2024/01/28 08:04:51;;;;;;;3.72;2.00;;;;;;;20.26;28.39;102279.94;4214249;28;20417;-70
2024/01/28 08:06:52;;;;;;;;;;;;;;;20.33;28.26;102296.53;4214010;28;20040;-68
2024/01/28 08:08:54;;;;;;;4.00;1.90;;;;;;;20.32;28.49;102302.81;4214015;28;19927;-70
2024/01/28 08:10:56;;;;;;;4.60;1.92;;;;;;;20.32;28.43;102300.13;4213793;28;20055;-68
2024/01/28 08:12:58;;;;;;;5.35;2.38;;;;;;;20.32;28.44;102293.94;4213877;28;20040;-69
2024/01/28 08:15:00;;;;;;;5.25;2.25;;;;;;;20.04;28.33;102239.25;4213806;28;20055;-68
2024/01/28 08:17:01;;;;;;;3.90;2.03;;;;;;;20.30;28.25;102285.13;4213981;28;20087;-69
2024/01/28 08:19:04;;;;;;;4.70;2.20;;;;;;;20.31;28.39;102285.03;4213925;28;20521;-68
2024/01/28 08:21:07;;;;;;;3.58;1.73;;;;;;;20.22;28.27;102267.69;4213645;28;20122;-69
2024/01/28 08:23:08;;;;;;;4.50;1.80;;;;;;;20.32;28.24;102283.25;4213834;28;20047;-69
2024/01/28 08:25:13;;;;;;;3.97;2.00;;;;;;;20.34;28.25;102287.56;4213512;28;20052;-68
2024/01/28 08:27:15;;;;;;;6.20;2.55;;;;;;;20.28;28.38;102277.19;4213889;28;20115;-68
2024/01/28 08:29:16;;;;;;;4.75;2.03;;;;;;;20.35;28.56;102283.06;4213834;28;20052;-68
2024/01/28 08:31:18;;;;;;;4.50;2.15;;;;;;;20.29;28.55;102280.72;4213958;28;20472;-68
2024/01/28 08:33:20;;;;;;;4.95;2.22;;;;;;;20.32;28.31;102286.78;4213588;28;20058;-69
2024/01/28 08:35:22;;;;;;;;;;;;;;;20.31;28.33;102282.38;4214108;28;20106;-69
2024/01/28 08:37:23;;;;;;;4.93;2.20;;;;;;;20.29;28.51;102294.94;4213877;28;19991;-69
2024/01/28 08:39:25;;;;;;;4.47;2.20;;;;;;;20.22;28.27;102275.69;4213149;28;20047;-68
2024/01/28 08:41:27;;;;;;;4.13;2.10;;;;;;;20.29;28.51;102292.25;4213709;28;20453;-69
2024/01/28 08:43:28;;;;;;;4.93;2.08;;;;;;;20.06;28.43;102256.06;4212468;28;20040;-69
2024/01/28 08:45:30;;;;;;;4.28;2.05;;;;;;;20.29;28.63;102288.75;4213924;28;20487;-69
2024/01/28 08:47:32;;;;;;;6.63;2.33;;;;;;;20.31;28.31;102292.22;4213426;28;20055;-69
2024/01/28 08:49:34;;;;;;;4.45;2.10;;;;;;;20.13;28.35;102265.47;4213627;28;20364;-69
2024/01/28 08:51:36;;;;;;;6.22;3.00;;;;;;;20.29;28.49;102280.72;4213406;28;20047;-69
2024/01/28 08:53:41;;;;;;;4.93;2.17;;;;;;;20.34;28.29;102290.25;4213520;28;20459;-68
2024/01/28 08:55:43;;;;;;;4.20;2.03;;;;;;;20.31;28.41;102292.22;4213342;28;20048;-69
2024/01/28 08:57:45;;;;;;;6.72;2.42;;;;;;;20.30;28.69;102285.13;4213568;28;20102;-68
2024/01/28 08:59:47;;;;;;;3.95;2.20;;;;;;;20.21;28.38;102265.09;4213655;28;20087;-69
2024/01/28 09:01:51;;;;;;;4.13;2.08;;;;;;;20.27;28.52;102276.31;4213428;28;20044;-69
2024/01/28 09:03:53;;;;;;;4.18;2.20;;;;;;;20.31;28.61;102286.88;4213507;28;20098;-69
2024/01/28 09:05:55;;;;;;;4.53;2.35;;;;;;;20.23;28.31;102274.75;4213784;28;20048;-69
2024/01/28 09:07:57;;;;;;;4.72;2.40;;;;;;;20.25;28.89;102272.00;4213532;28;20372;-69
2024/01/28 09:10:00;;;;;;;4.57;2.30;;;;;;;20.29;28.57;102273.56;4213184;28;20076;-69
2024/01/28 09:12:02;;;;;;;5.68;2.38;;;;;;;20.31;28.38;102278.84;4213431;28;20082;-70
2024/01/28 09:14:03;;;;;;;;;;;;;;;20.33;28.43;102271.59;4213987;28;20044;-68
2024/01/28 09:16:05;;;;;;;4.77;2.40;;;;;;;20.32;28.40;102267.22;4213438;28;19920;-69
2024/01/28 09:18:07;;;;;;;5.30;2.63;;;;;;;20.34;28.65;102263.53;4213362;28;20638;-69
2024/01/28 09:20:09;;;;;;;4.82;2.10;;;;;;;20.25;28.44;102250.63;4215308;28;20116;-69
2024/01/28 09:22:11;;;;;;;4.53;2.45;;;;;;;20.34;28.35;102263.53;4216682;28;20052;-70
2024/01/28 09:24:13;;;;;;;5.13;2.58;;;;;;;20.30;28.56;102255.75;4216466;28;20044;-69
2024/01/28 09:26:14;;;;;;;4.80;2.30;;;;;;;20.00;28.57;102217.19;4216705;28;20077;-68
2024/01/28 09:28:16;;;;;;;4.93;2.53;;;;;;;20.18;28.58;102238.53;4216426;28;20048;-68
2024/01/28 09:30:18;;;;;;;4.40;2.28;;;;;;;20.19;28.72;102242.94;4216687;28;20093;-69
2024/01/28 09:32:20;;;;;;;4.03;2.30;;;;;;;20.31;28.43;102270.84;4216510;28;20062;-68